Time;durP1;ratioP1;P1;durP2;ratioP2;P2;SDS_P1;SDS_P2;PMS_P1;PMS_P2;Temp;Humidity;BMP_temperature;BMP_pressure;BME280_temperature;BME280_humidity;BME280_pressure;Samples;Min_cycle;Max_cycle;Signal;HPM_P1;HPM_P2
2023/10/19 00:02:56;;;;;;;;;;;;;;;0.07;100.00;98351.56;135778;1272;24321;-81
2023/10/19 00:05:58;;;;;;;;;;;;;;;0.09;100.00;98350.92;135774;1272;22509;-82
2023/10/19 00:09:01;;;;;;;;;;;;;;;0.07;100.00;98346.06;135779;1272;22483;-81
2023/10/19 00:12:03;;;;;;;;;;;;;;;0.04;100.00;98340.79;135677;1272;22518;-82
2023/10/19 00:15:09;;;;;;;;;;;;;;;0.03;100.00;98335.77;135743;1272;22557;-83
2023/10/19 00:18:22;;;;;;;;;;;;;;;0.02;100.00;98328.54;135741;1272;22517;-82
2023/10/19 00:21:26;;;;;;;;;;;;;;;0.01;100.00;98329.39;135788;1272;22510;-82
2023/10/19 00:24:31;;;;;;;;;;;;;;;0.03;100.00;98327.91;135805;1272;22511;-81
2023/10/19 00:27:34;;;;;;;;;;;;;;;0.06;100.00;98328.23;135901;1272;22518;-81
2023/10/19 00:30:36;;;;;;;;;;;;;;;0.07;100.00;98324.17;135854;1272;22651;-81
2023/10/19 00:33:40;;;;;;;;;;;;;;;0.06;100.00;98322.23;136186;1272;22623;-81
2023/10/19 00:36:43;;;;;;;;;;;;;;;0.08;100.00;98316.15;136659;1272;22849;-79
2023/10/19 00:39:53;;;;;;;;;;;;;;;0.09;100.00;98315.34;136568;1272;24914;-82
2023/10/19 00:42:56;;;;;;;;;;;;;;;0.08;100.00;98307.29;136159;1272;22543;-79
2023/10/19 00:45:58;;;;;;;;;;;;;;;0.08;100.00;98303.35;135956;1272;22546;-79
2023/10/19 00:49:01;;;;;;;;;;;;;;;0.09;100.00;98306.64;135624;1272;22517;-79
2023/10/19 00:52:10;;;;;;;;;;;;;;;0.11;100.00;98304.50;135485;1263;22569;-81
2023/10/19 00:55:13;;;;;;;;;;;;;;;0.13;100.00;98300.48;135547;1272;22603;-81
2023/10/19 00:58:17;;;;;;;;;;;;;;;0.13;100.00;98291.42;135720;1272;22527;-80
2023/10/19 01:01:20;;;;;;;;;;;;;;;0.15;100.00;98283.31;135685;1272;22495;-81
2023/10/19 01:04:23;;;;;;;;;;;;;;;0.15;100.00;98280.21;135677;1272;22569;-83
2023/10/19 01:07:29;;;;;;;;;;;;;;;0.13;100.00;98279.42;135722;1272;22547;-82
2023/10/19 01:10:35;;;;;;;;;;;;;;;0.14;100.00;98274.89;135679;1272;22534;-81
2023/10/19 01:13:44;;;;;;;;;;;;;;;0.16;100.00;98270.88;135666;1272;22522;-81
2023/10/19 01:16:49;;;;;;;;;;;;;;;0.16;100.00;98268.44;135697;1272;23303;-81
2023/10/19 01:19:52;;;;;;;;;;;;;;;0.16;100.00;98268.27;135845;1272;22544;-81
2023/10/19 01:23:06;;;;;;;;;;;;;;;0.18;100.00;98263.23;135825;1272;22565;-81
2023/10/19 01:26:09;;;;;;;;;;;;;;;0.22;100.00;98260.49;135868;1272;22532;-81
2023/10/19 01:29:17;;;;;;;;;;;;;;;0.20;100.00;98255.63;136056;1272;22534;-81
2023/10/19 01:32:19;;;;;;;;;;;;;;;0.20;100.00;98252.20;135985;1272;22537;-81
2023/10/19 01:35:22;;;;;;;;;;;;;;;0.18;100.00;98243.38;135951;1272;22454;-83
2023/10/19 01:38:25;;;;;;;;;;;;;;;0.18;100.00;98241.31;135943;1272;22518;-81
2023/10/19 01:41:27;;;;;;;;;;;;;;;0.22;100.00;98237.21;135921;1272;22614;-80
2023/10/19 01:44:30;;;;;;;;;;;;;;;0.24;100.00;98227.56;135960;1272;22509;-81
2023/10/19 01:47:32;;;;;;;;;;;;;;;0.30;100.00;98218.91;135926;1272;22513;-82
2023/10/19 01:50:38;;;;;;;;;;;;;;;0.37;100.00;98217.16;135997;1272;24953;-81
2023/10/19 01:53:43;;;;;;;;;;;;;;;0.43;100.00;98211.23;135794;1272;24344;-81
2023/10/19 01:56:46;;;;;;;;;;;;;;;0.45;100.00;98203.63;135714;1272;22529;-81
2023/10/19 01:59:49;;;;;;;;;;;;;;;0.47;100.00;98198.91;135612;1272;22524;-81
2023/10/19 02:02:51;;;;;;;;;;;;;;;0.51;100.00;98193.41;135587;1272;22523;-80
2023/10/19 02:05:54;;;;;;;;;;;;;;;0.53;100.00;98186.66;135588;1272;22515;-80
2023/10/19 02:08:59;;;;;;;;;;;;;;;0.51;100.00;98181.62;135568;1272;22514;-80
2023/10/19 02:12:04;;;;;;;;;;;;;;;0.53;100.00;98173.83;135594;1272;22511;-80
2023/10/19 02:15:08;;;;;;;;;;;;;;;0.58;100.00;98176.92;135735;1272;22781;-84
2023/10/19 02:18:17;;;;;;;;;;;;;;;0.65;100.00;98173.94;135759;1272;22508;-82
2023/10/19 02:21:23;;;;;;;;;;;;;;;0.72;100.00;98172.52;135808;1272;25223;-81
2023/10/19 02:24:28;;;;;;;;;;;;;;;0.78;100.00;98170.70;135907;1272;22515;-79
2023/10/19 02:27:30;;;;;;;;;;;;;;;0.82;100.00;98159.05;135787;1269;22542;-80
2023/10/19 02:30:33;;;;;;;;;;;;;;;0.86;100.00;98154.22;135831;1272;22518;-81
2023/10/19 02:33:36;;;;;;;;;;;;;;;0.85;100.00;98150.76;135749;1272;22531;-83
2023/10/19 02:36:39;;;;;;;;;;;;;;;0.81;100.00;98150.45;135801;1272;22542;-82
2023/10/19 02:39:43;;;;;;;;;;;;;;;0.81;100.00;98146.48;135819;1272;22502;-80
2023/10/19 02:42:48;;;;;;;;;;;;;;;0.79;100.00;98141.81;135807;1272;22527;-85
2023/10/19 02:45:52;;;;;;;;;;;;;;;0.82;100.00;98140.86;135841;1272;22526;-83
2023/10/19 02:48:56;;;;;;;;;;;;;;;0.87;100.00;98141.94;135942;1272;22573;-82
2023/10/19 02:52:03;;;;;;;;;;;;;;;0.88;100.00;98139.09;136039;1272;22525;-81
2023/10/19 02:55:06;;;;;;;;;;;;;;;0.83;100.00;98131.16;135940;1272;22534;-80
2023/10/19 02:58:08;;;;;;;;;;;;;;;0.75;100.00;98124.83;136199;1265;22561;-80
2023/10/19 03:01:11;;;;;;;;;;;;;;;0.77;100.00;98117.23;136316;1272;22557;-80
2023/10/19 03:04:15;;;;;;;;;;;;;;;0.79;100.00;98103.60;136230;1272;23085;-81
2023/10/19 03:07:18;;;;;;;;;;;;;;;0.82;100.00;98105.07;136124;1272;22622;-81
2023/10/19 03:10:34;;;;;;;;;;;;;;;0.88;100.00;98100.22;136264;1272;22528;-81
2023/10/19 03:13:40;;;;;;;;;;;;;;;0.93;100.00;98090.12;136438;1272;24198;-80
2023/10/19 03:16:43;;;;;;;;;;;;;;;0.95;100.00;98080.42;136337;1272;22440;-81
2023/10/19 03:19:48;;;;;;;;;;;;;;;0.95;100.00;98076.84;136365;1272;22511;-83
2023/10/19 03:22:51;;;;;;;;;;;;;;;0.95;100.00;98081.11;136242;1272;22661;-81
2023/10/19 03:29:18;;;;;;;;;;;;;;;0.96;100.00;98078.58;136584;1272;22512;-81
2023/10/19 03:32:22;;;;;;;;;;;;;;;1.36;100.00;98065.45;137004;1272;22626;-80
2023/10/19 03:35:25;;;;;;;;;;;;;;;1.91;100.00;98055.87;136595;1272;22555;-81
2023/10/19 03:38:28;;;;;;;;;;;;;;;1.79;100.00;98048.96;136547;1272;22560;-80
2023/10/19 03:41:35;;;;;;;;;;;;;;;2.53;100.00;98049.27;136303;1272;23028;-79
2023/10/19 03:44:44;;;;;;;;;;;;;;;2.30;100.00;98043.94;136416;1272;22986;-80
2023/10/19 03:47:50;;;;;;;;;;;;;;;1.92;100.00;98034.64;136287;1272;24914;-80
2023/10/19 03:50:55;;;;;;;;;;;;;;;1.64;100.00;98035.75;136211;1272;22608;-81
2023/10/19 03:54:01;;;;;;;;;;;;;;;1.45;100.00;98033.90;136199;1272;22741;-80
2023/10/19 03:57:11;;;;;;;;;;;;;;;1.34;100.00;98027.67;136133;1272;22541;-81
2023/10/19 04:00:16;;;;;;;;;;;;;;;1.30;100.00;98018.79;136280;1272;22518;-80
2023/10/19 04:03:19;;;;;;;;;;;;;;;1.21;100.00;98015.74;136218;1272;22535;-80
2023/10/19 04:06:21;;;;;;;;;;;;;;;1.15;100.00;98015.20;136166;1272;22615;-79
2023/10/19 04:09:28;;;;;;;;;;;;;;;1.12;100.00;98009.23;136237;1272;22550;-81
2023/10/19 04:12:31;;;;;;;;;;;;;;;1.11;100.00;98006.84;136403;1272;25246;-80
2023/10/19 04:15:33;;;;;;;;;;;;;;;1.15;100.00;98015.00;136500;1272;22572;-80
2023/10/19 04:18:39;;;;;;;;;;;;;;;1.16;100.00;98008.36;136444;1272;22509;-80
2023/10/19 04:21:43;;;;;;;;;;;;;;;1.15;100.00;98005.23;136672;1272;22534;-79
2023/10/19 04:24:46;;;;;;;;;;;;;;;1.12;100.00;98006.19;137643;1272;22665;-81
2023/10/19 04:27:49;;;;;;;;;;;;;;;1.11;100.00;98003.73;137629;1272;22336;-81
2023/10/19 04:30:52;;;;;;;;;;;;;;;1.08;100.00;98004.14;137668;1272;22206;-80
2023/10/19 04:33:57;;;;;;;;;;;;;;;1.05;100.00;98002.16;137656;1272;22732;-80
2023/10/19 04:36:59;;;;;;;;;;;;;;;1.00;100.00;97995.64;137253;1272;22523;-79
2023/10/19 04:40:02;;;;;;;;;;;;;;;0.96;100.00;97991.55;135318;1272;25207;-79
2023/10/19 04:43:05;;;;;;;;;;;;;;;0.92;100.00;97986.61;135371;1272;22535;-80
2023/10/19 04:46:10;;;;;;;;;;;;;;;0.86;100.00;97976.44;135394;1272;22994;-79
2023/10/19 04:49:13;;;;;;;;;;;;;;;0.81;100.00;97967.16;135327;1272;23214;-80
2023/10/19 04:52:15;;;;;;;;;;;;;;;0.78;100.00;97963.30;135237;1272;22539;-80
2023/10/19 04:55:18;;;;;;;;;;;;;;;0.77;100.00;97962.39;135160;1272;23518;-79
2023/10/19 04:58:20;;;;;;;;;;;;;;;0.70;100.00;97957.52;135057;1272;22618;-80
2023/10/19 05:01:24;;;;;;;;;;;;;;;0.62;100.00;97955.19;135216;1272;22874;-79
2023/10/19 05:04:29;;;;;;;;;;;;;;;0.60;100.00;97953.05;135063;1272;23006;-79
2023/10/19 05:07:33;;;;;;;;;;;;;;;0.63;100.00;97954.20;134980;1272;22561;-79
2023/10/19 05:10:35;;;;;;;;;;;;;;;0.72;100.00;97951.75;135193;1272;22558;-78
2023/10/19 05:13:38;;;;;;;;;;;;;;;0.76;100.00;97948.67;135352;1272;24857;-80
2023/10/19 05:16:41;;;;;;;;;;;;;;;0.77;100.00;97948.70;135320;1272;22950;-79
2023/10/19 05:19:44;;;;;;;;;;;;;;;0.80;100.00;97944.70;135046;1272;22682;-78
2023/10/19 05:22:46;;;;;;;;;;;;;;;0.80;100.00;97944.50;135220;1272;22547;-79
2023/10/19 05:25:49;;;;;;;;;;;;;;;0.80;100.00;97947.09;135202;1272;22646;-79
2023/10/19 05:28:51;;;;;;;;;;;;;;;0.80;100.00;97950.35;135045;1272;24932;-79
2023/10/19 05:31:54;;;;;;;;;;;;;;;0.76;100.00;97948.66;134965;1272;22534;-78
2023/10/19 05:34:56;;;;;;;;;;;;;;;0.70;100.00;97947.44;135117;1272;22549;-78
2023/10/19 05:38:00;;;;;;;;;;;;;;;0.71;100.00;97946.25;135028;1257;22551;-77
2023/10/19 05:41:03;;;;;;;;;;;;;;;0.77;100.00;97946.64;135276;1272;26117;-79
2023/10/19 05:44:05;;;;;;;;;;;;;;;0.89;100.00;97945.39;135377;1272;25893;-79
2023/10/19 05:47:08;;;;;;;;;;;;;;;1.06;100.00;97937.95;135295;1272;22541;-78
2023/10/19 05:50:14;;;;;;;;;;;;;;;1.22;100.00;97930.27;135133;1272;22527;-79
2023/10/19 05:53:18;;;;;;;;;;;;;;;1.37;100.00;97931.59;135130;1265;22519;-78
2023/10/19 05:56:21;;;;;;;;;;;;;;;1.53;100.00;97925.09;135041;1257;22526;-79
2023/10/19 05:59:26;;;;;;;;;;;;;;;1.67;100.00;97926.40;135250;1272;22544;-80
2023/10/19 06:02:28;;;;;;;;;;;;;;;1.85;100.00;97926.69;135398;1272;22516;-79
2023/10/19 06:05:31;;;;;;;;;;;;;;;2.04;100.00;97918.70;135382;1272;22520;-79
2023/10/19 06:08:33;;;;;;;;;;;;;;;2.28;100.00;97918.88;135298;1272;24192;-79
2023/10/19 06:11:37;;;;;;;;;;;;;;;2.52;100.00;97916.16;136465;1272;22545;-77
2023/10/19 06:14:42;;;;;;;;;;;;;;;2.77;100.00;97912.42;137158;1272;24167;-79
2023/10/19 06:17:45;;;;;;;;;;;;;;;3.04;100.00;97907.28;137392;1272;22957;-80
2023/10/19 06:20:50;;;;;;;;;;;;;;;3.25;100.00;97907.67;137101;1268;23046;-80
2023/10/19 06:23:54;;;;;;;;;;;;;;;3.43;100.00;97910.87;136553;1272;22635;-79
2023/10/19 06:26:57;;;;;;;;;;;;;;;3.60;100.00;97916.83;136410;1272;22527;-79
2023/10/19 06:29:59;;;;;;;;;;;;;;;3.74;100.00;97918.02;135396;1272;22512;-82
2023/10/19 06:33:02;;;;;;;;;;;;;;;3.87;100.00;97918.50;136625;1272;22543;-82
2023/10/19 06:36:05;;;;;;;;;;;;;;;3.97;100.00;97907.02;136511;1272;22547;-82
2023/10/19 06:39:08;;;;;;;;;;;;;;;4.02;100.00;97892.17;136537;1272;22541;-82
2023/10/19 06:42:13;;;;;;;;;;;;;;;4.07;100.00;97880.21;136759;1272;22525;-82
2023/10/19 06:45:16;;;;;;;;;;;;;;;4.10;100.00;97882.53;136808;1272;22543;-79
2023/10/19 06:48:18;;;;;;;;;;;;;;;4.19;100.00;97883.06;136737;1272;22556;-80
2023/10/19 06:51:21;;;;;;;;;;;;;;;4.26;100.00;97882.86;135263;1268;22601;-80
2023/10/19 06:54:24;;;;;;;;;;;;;;;4.35;100.00;97874.13;135243;1272;23495;-80
2023/10/19 06:57:27;;;;;;;;;;;;;;;4.41;100.00;97870.14;135168;1272;22535;-79
2023/10/19 07:00:29;;;;;;;;;;;;;;;4.53;100.00;97858.14;135167;1272;22667;-79
2023/10/19 07:03:32;;;;;;;;;;;;;;;4.66;100.00;97859.09;135268;1272;22533;-80
2023/10/19 07:06:35;;;;;;;;;;;;;;;4.84;100.00;97856.15;135269;1271;24250;-81
2023/10/19 07:09:38;;;;;;;;;;;;;;;4.99;100.00;97851.76;136787;1272;22824;-80
2023/10/19 07:12:41;;;;;;;;;;;;;;;5.09;100.00;97839.70;135445;1272;22809;-80
2023/10/19 07:15:44;;;;;;;;;;;;;;;5.04;100.00;97838.23;135325;1272;22548;-79
2023/10/19 07:18:46;;;;;;;;;;;;;;;4.99;100.00;97836.42;135199;1272;23494;-80
2023/10/19 07:21:53;;;;;;;;;;;;;;;4.97;100.00;97833.80;135147;1272;22562;-80
2023/10/19 07:24:55;;;;;;;;;;;;;;;4.99;100.00;97829.00;135189;1272;26034;-79
2023/10/19 07:27:59;;;;;;;;;;;;;;;4.97;100.00;97817.94;135211;1272;22511;-78
2023/10/19 07:31:03;;;;;;;;;;;;;;;4.95;100.00;97811.86;135009;1272;192664;-80
2023/10/19 07:34:08;;;;;;;;;;;;;;;4.92;100.00;97807.84;135186;1272;23013;-80
2023/10/19 07:37:14;;;;;;;;;;;;;;;4.92;100.00;97800.08;135180;1272;24192;-80
2023/10/19 07:40:17;;;;;;;;;;;;;;;4.94;100.00;97791.84;135098;1272;22498;-80
2023/10/19 07:43:21;;;;;;;;;;;;;;;5.01;100.00;97787.32;135211;1272;22598;-79
2023/10/19 07:46:23;;;;;;;;;;;;;;;5.13;100.00;97791.31;135181;1272;22827;-79
2023/10/19 07:49:26;;;;;;;;;;;;;;;5.19;100.00;97797.77;135218;1272;22762;-79
2023/10/19 07:52:28;;;;;;;;;;;;;;;5.25;100.00;97786.01;135363;1272;22514;-81
2023/10/19 07:55:31;;;;;;;;;;;;;;;5.37;100.00;97777.58;135467;1272;22517;-81
2023/10/19 07:58:34;;;;;;;;;;;;;;;5.47;100.00;97774.11;136444;1272;22552;-82
2023/10/19 08:01:37;;;;;;;;;;;;;;;5.55;100.00;97769.90;136555;1272;22968;-82
2023/10/19 08:04:39;;;;;;;;;;;;;;;5.67;100.00;97770.06;136683;1272;22560;-81
2023/10/19 08:07:42;;;;;;;;;;;;;;;5.79;100.00;97767.64;136800;1272;22555;-80
2023/10/19 08:10:47;;;;;;;;;;;;;;;5.92;100.00;97772.34;135116;1272;22575;-80
2023/10/19 08:13:49;;;;;;;;;;;;;;;5.98;100.00;97760.67;135124;1260;22554;-80
2023/10/19 08:16:52;;;;;;;;;;;;;;;6.07;100.00;97765.64;134994;1272;22557;-80
2023/10/19 08:19:55;;;;;;;;;;;;;;;6.17;100.00;97759.21;135191;1272;22576;-79
2023/10/19 08:22:57;;;;;;;;;;;;;;;6.26;100.00;97749.30;135427;1272;24244;-82
2023/10/19 08:26:00;;;;;;;;;;;;;;;6.33;100.00;97751.11;136869;1272;24222;-79
2023/10/19 08:29:11;;;;;;;;;;;;;;;6.38;100.00;97750.81;135259;1272;22474;-79
2023/10/19 08:32:16;;;;;;;;;;;;;;;6.54;100.00;97742.67;135258;1272;25057;-82
2023/10/19 08:35:20;;;;;;;;;;;;;;;6.64;100.00;97737.42;136531;1272;22543;-78
2023/10/19 08:38:23;;;;;;;;;;;;;;;6.83;100.00;97723.23;135044;1272;22551;-80
2023/10/19 08:41:25;;;;;;;;;;;;;;;7.11;100.00;97720.56;135070;1272;22531;-81
2023/10/19 08:44:28;;;;;;;;;;;;;;;7.44;100.00;97713.69;136694;1272;22674;-80
2023/10/19 08:47:30;;;;;;;;;;;;;;;7.81;100.00;97704.91;135227;1272;22549;-81
2023/10/19 08:50:33;;;;;;;;;;;;;;;8.15;100.00;97699.32;135233;1272;22503;-81
2023/10/19 08:53:39;;;;;;;;;;;;;;;8.40;100.00;97689.02;135235;1271;25652;-80
2023/10/19 08:56:42;;;;;;;;;;;;;;;8.50;100.00;97679.16;135315;1271;22498;-81
2023/10/19 08:59:46;;;;;;;;;;;;;;;8.63;100.00;97675.02;135696;1272;22568;-79
2023/10/19 09:02:49;;;;;;;;;;;;;;;8.76;100.00;97678.86;136077;1262;22618;-79
2023/10/19 09:05:51;;;;;;;;;;;;;;;8.89;100.00;97672.27;136480;1265;22449;-79
2023/10/19 09:08:54;;;;;;;;;;;;;;;9.11;100.00;97665.14;136524;1272;22704;-79
2023/10/19 09:11:57;;;;;;;;;;;;;;;9.27;100.00;97665.30;136637;1272;22913;-80
2023/10/19 09:15:00;;;;;;;;;;;;;;;9.44;100.00;97665.43;137323;1272;22533;-80
2023/10/19 09:18:03;;;;;;;;;;;;;;;9.40;100.00;97658.66;137395;1272;22541;-80
2023/10/19 09:21:07;;;;;;;;;;;;;;;9.37;100.00;97659.38;136222;1272;22567;-80
2023/10/19 09:24:10;;;;;;;;;;;;;;;9.30;100.00;97667.20;136241;1272;22546;-81
2023/10/19 09:27:15;;;;;;;;;;;;;;;9.17;100.00;97671.39;136305;1272;22614;-82
2023/10/19 09:30:19;;;;;;;;;;;;;;;9.07;100.00;97676.26;135523;1272;22517;-79
2023/10/19 09:33:24;;;;;;;;;;;;;;;8.99;100.00;97672.11;135443;1272;25289;-81
2023/10/19 09:36:29;;;;;;;;;;;;;;;8.92;100.00;97672.45;135463;1253;22556;-81
2023/10/19 09:39:35;;;;;;;;;;;;;;;8.86;100.00;97671.23;135508;1272;22536;-81
2023/10/19 09:42:37;;;;;;;;;;;;;;;8.82;100.00;97667.94;136379;1272;22543;-81
2023/10/19 09:45:40;;;;;;;;;;;;;;;8.76;100.00;97658.92;136434;1272;24195;-81
2023/10/19 09:48:43;;;;;;;;;;;;;;;8.65;100.00;97659.59;135250;1272;22608;-81
2023/10/19 09:51:49;;;;;;;;;;;;;;;8.57;100.00;97656.97;136848;1272;23000;-80
2023/10/19 09:54:52;;;;;;;;;;;;;;;8.52;100.00;97647.61;137039;1272;23108;-80
2023/10/19 09:57:55;;;;;;;;;;;;;;;8.47;100.00;97637.55;137230;1272;22518;-80
2023/10/19 10:01:02;;;;;;;;;;;;;;;8.46;100.00;97630.09;136886;1272;22613;-80
2023/10/19 10:04:06;;;;;;;;;;;;;;;8.50;100.00;97628.02;136850;1272;22583;-81
2023/10/19 10:07:09;;;;;;;;;;;;;;;8.52;100.00;97626.28;135134;1272;22576;-81
2023/10/19 10:10:12;;;;;;;;;;;;;;;8.57;100.00;97624.89;135224;1272;22864;-80
2023/10/19 10:13:15;;;;;;;;;;;;;;;8.64;100.00;97616.92;135190;1272;22586;-81
2023/10/19 10:16:17;;;;;;;;;;;;;;;8.77;100.00;97618.33;135131;1272;25074;-80
2023/10/19 10:19:19;;;;;;;;;;;;;;;8.89;100.00;97611.38;135151;1272;25970;-80
2023/10/19 10:22:22;;;;;;;;;;;;;;;8.97;100.00;97606.34;135161;1272;22608;-80
2023/10/19 10:25:25;;;;;;;;;;;;;;;9.09;100.00;97603.88;134997;1272;22508;-79
2023/10/19 10:28:28;;;;;;;;;;;;;;;9.21;100.00;97594.14;134984;1272;22947;-80
2023/10/19 10:31:31;;;;;;;;;;;;;;;9.36;100.00;97590.27;134944;1272;25284;-79
2023/10/19 10:34:33;;;;;;;;;;;;;;;9.43;100.00;97589.55;134852;1272;22557;-80
2023/10/19 10:37:36;;;;;;;;;;;;;;;9.54;100.00;97582.58;137330;1272;22547;-80
2023/10/19 10:40:38;;;;;;;;;;;;;;;9.67;100.00;97583.76;137256;1265;22547;-80
2023/10/19 10:43:40;;;;;;;;;;;;;;;9.81;100.00;97576.55;137015;1272;22576;-80
2023/10/19 10:46:44;;;;;;;;;;;;;;;9.84;100.00;97570.98;136805;1272;22543;-80
2023/10/19 10:49:47;;;;;;;;;;;;;;;9.79;100.00;97571.36;136713;1272;22587;-80
2023/10/19 10:52:53;;;;;;;;;;;;;;;9.90;100.00;97569.90;136769;1272;22576;-81
2023/10/19 10:55:55;;;;;;;;;;;;;;;10.02;100.00;97568.27;135099;1272;22465;-80
2023/10/19 10:58:58;;;;;;;;;;;;;;;10.05;100.00;97562.52;136974;1272;22994;-80
2023/10/19 11:02:01;;;;;;;;;;;;;;;10.00;100.00;97560.45;135138;1272;22537;-80
2023/10/19 11:05:03;;;;;;;;;;;;;;;9.92;100.00;97556.87;135310;1272;22544;-79
2023/10/19 11:08:06;;;;;;;;;;;;;;;9.80;100.00;97559.19;135192;1272;22605;-79
2023/10/19 11:11:10;;;;;;;;;;;;;;;9.67;100.00;97555.80;135296;1272;24212;-80
2023/10/19 11:14:13;;;;;;;;;;;;;;;9.61;100.00;97548.35;135220;1272;23582;-80
2023/10/19 11:17:16;;;;;;;;;;;;;;;9.52;100.00;97541.77;136366;1272;22522;-82
2023/10/19 11:20:18;;;;;;;;;;;;;;;9.44;100.00;97531.73;136573;1272;22789;-81
2023/10/19 11:23:20;;;;;;;;;;;;;;;9.41;100.00;97527.91;136574;1272;22533;-81
2023/10/19 11:26:24;;;;;;;;;;;;;;;9.79;100.00;97522.55;136886;1272;22560;-81
2023/10/19 11:29:26;;;;;;;;;;;;;;;9.78;100.00;97517.67;136600;1272;22531;-82
2023/10/19 11:32:30;;;;;;;;;;;;;;;9.71;100.00;97516.33;136500;1272;22571;-83
2023/10/19 11:35:33;;;;;;;;;;;;;;;9.64;100.00;97518.98;136436;1272;22544;-82
2023/10/19 11:38:37;;;;;;;;;;;;;;;9.52;100.00;97521.63;136815;1272;22554;-80
2023/10/19 11:41:40;;;;;;;;;;;;;;;9.41;100.00;97514.02;135142;1272;23105;-82
2023/10/19 11:44:43;;;;;;;;;;;;;;;9.35;100.00;97513.36;135097;1272;23731;-81
2023/10/19 11:47:45;;;;;;;;;;;;;;;9.26;100.00;97514.96;135220;1272;26223;-82
2023/10/19 11:50:48;;;;;;;;;;;;;;;9.14;100.00;97520.22;135157;1272;22571;-82
2023/10/19 11:53:50;;;;;;;;;;;;;;;9.06;100.00;97523.90;137022;1272;22531;-81
2023/10/19 11:56:54;;;;;;;;;;;;;;;9.01;100.00;97524.09;135330;1272;22524;-81
2023/10/19 12:00:01;;;;;;;;;;;;;;;9.00;100.00;97521.48;135169;1272;23009;-79
2023/10/19 12:03:03;;;;;;;;;;;;;;;9.01;100.00;97513.50;135149;1272;22561;-81
2023/10/19 12:06:08;;;;;;;;;;;;;;;8.96;100.00;97503.80;135076;1261;22708;-80
2023/10/19 12:09:15;;;;;;;;;;;;;;;8.95;100.00;97494.27;134893;1272;26080;-81
2023/10/19 12:12:30;;;;;;;;;;;;;;;9.00;100.00;97489.04;137223;1272;24564;-82
2023/10/19 12:19:31;;;;;;;;;;;;;;;8.95;100.00;97481.25;137116;1272;22544;-81
2023/10/19 12:22:38;;;;;;;;;;;;;;;8.98;100.00;97484.36;137435;1272;22536;-82
2023/10/19 12:25:42;;;;;;;;;;;;;;;9.03;100.00;97482.44;137371;1272;22528;-82
2023/10/19 12:28:46;;;;;;;;;;;;;;;9.07;100.00;97477.73;137434;1272;22624;-81
2023/10/19 12:31:49;;;;;;;;;;;;;;;9.06;100.00;97466.28;137505;1272;22541;-81
2023/10/19 12:34:56;;;;;;;;;;;;;;;9.07;100.00;97464.36;137503;1272;22528;-81
2023/10/19 12:37:58;;;;;;;;;;;;;;;9.09;100.00;97460.71;137422;1272;22536;-82
2023/10/19 12:41:01;;;;;;;;;;;;;;;9.06;100.00;97464.72;137286;1272;23380;-82
2023/10/19 12:44:08;;;;;;;;;;;;;;;9.00;100.00;97459.37;137019;1272;22566;-82
2023/10/19 12:47:12;;;;;;;;;;;;;;;8.99;100.00;97448.61;137344;1272;22525;-81
2023/10/19 12:50:15;;;;;;;;;;;;;;;8.92;100.00;97448.47;137290;1272;22554;-80
2023/10/19 12:53:18;;;;;;;;;;;;;;;8.92;100.00;97453.67;135011;1272;22867;-79
2023/10/19 12:56:20;;;;;;;;;;;;;;;8.96;100.00;97449.66;135050;1272;22541;-80
2023/10/19 12:59:23;;;;;;;;;;;;;;;8.99;100.00;97451.39;137308;1272;23044;-81
2023/10/19 13:02:30;;;;;;;;;;;;;;;9.01;100.00;97449.48;137242;1269;22595;-82
2023/10/19 13:05:32;;;;;;;;;;;;;;;9.03;100.00;97446.86;137089;1272;23131;-80
2023/10/19 13:08:35;;;;;;;;;;;;;;;9.01;100.00;97444.96;137001;1272;24687;-80
2023/10/19 13:11:43;;;;;;;;;;;;;;;9.00;100.00;97439.41;136782;1262;22566;-83
2023/10/19 13:14:46;;;;;;;;;;;;;;;8.99;100.00;97440.98;137307;1272;23091;-81
2023/10/19 13:17:48;;;;;;;;;;;;;;;8.96;100.00;97441.51;137231;1272;23745;-79
2023/10/19 13:20:54;;;;;;;;;;;;;;;8.92;100.00;97439.45;135085;1272;25864;-81
2023/10/19 13:23:56;;;;;;;;;;;;;;;8.87;100.00;97439.12;137265;1272;22575;-81
2023/10/19 13:26:59;;;;;;;;;;;;;;;8.82;100.00;97434.11;137301;1272;22545;-80
2023/10/19 13:30:01;;;;;;;;;;;;;;;8.83;100.00;97433.94;135081;1272;22964;-80
2023/10/19 13:33:04;;;;;;;;;;;;;;;8.87;100.00;97430.80;137314;1272;22527;-82
2023/10/19 13:36:06;;;;;;;;;;;;;;;8.80;100.00;97425.61;137206;1272;22553;-81
2023/10/19 13:39:13;;;;;;;;;;;;;;;8.87;100.00;97420.73;136835;1272;23006;-79
2023/10/19 13:42:15;;;;;;;;;;;;;;;8.86;100.00;97416.91;135101;1272;24828;-80
2023/10/19 13:45:18;;;;;;;;;;;;;;;8.81;100.00;97410.69;135214;1272;22555;-79
2023/10/19 13:48:20;;;;;;;;;;;;;;;8.77;100.00;97400.83;135361;1272;22523;-82
2023/10/19 13:51:23;;;;;;;;;;;;;;;8.75;100.00;97389.39;135492;1272;22556;-80
2023/10/19 13:54:26;;;;;;;;;;;;;;;8.73;100.00;97388.18;136365;1272;22524;-79
2023/10/19 13:57:29;;;;;;;;;;;;;;;8.69;100.00;97375.54;135369;1272;26136;-78
2023/10/19 14:00:35;;;;;;;;;;;;;;;8.64;100.00;97352.46;135389;1272;22536;-78
2023/10/19 14:03:38;;;;;;;;;;;;;;;8.58;100.00;97336.36;135649;1272;22525;-82
2023/10/19 14:06:40;;;;;;;;;;;;;;;8.53;100.00;97334.48;136383;1272;23072;-80
2023/10/19 14:09:44;;;;;;;;;;;;;;;8.48;100.00;97342.66;136281;1272;22468;-79
2023/10/19 14:12:47;;;;;;;;;;;;;;;8.43;100.00;97334.86;136515;1272;22508;-79
2023/10/19 14:15:50;;;;;;;;;;;;;;;8.37;100.00;97328.65;135930;1269;22529;-79
2023/10/19 14:18:53;;;;;;;;;;;;;;;8.28;100.00;97322.23;135811;1272;22616;-79
2023/10/19 14:21:55;;;;;;;;;;;;;;;8.22;100.00;97321.39;135286;1272;22625;-79
2023/10/19 14:24:58;;;;;;;;;;;;;;;8.22;100.00;97318.78;135192;1272;24197;-80
2023/10/19 14:28:00;;;;;;;;;;;;;;;8.22;100.00;97324.51;135018;1272;23832;-81
2023/10/19 14:31:03;;;;;;;;;;;;;;;8.25;100.00;97322.93;135140;1272;22811;-80
2023/10/19 14:34:07;;;;;;;;;;;;;;;8.29;100.00;97321.54;135087;1272;22567;-79
2023/10/19 14:37:10;;;;;;;;;;;;;;;8.30;100.00;97319.63;135295;1272;25840;-79
2023/10/19 14:40:14;;;;;;;;;;;;;;;8.29;100.00;97306.98;135462;1272;22598;-81
2023/10/19 14:43:16;;;;;;;;;;;;;;;8.27;100.00;97298.84;135575;1272;22566;-81
2023/10/19 14:46:19;;;;;;;;;;;;;;;8.27;100.00;97287.23;135480;1272;22624;-80
2023/10/19 14:49:21;;;;;;;;;;;;;;;8.26;100.00;97282.39;135524;1272;22526;-80
2023/10/19 14:52:24;;;;;;;;;;;;;;;8.25;100.00;97282.04;135529;1272;22965;-80
2023/10/19 14:55:26;;;;;;;;;;;;;;;8.24;100.00;97280.31;135574;1272;22634;-80
2023/10/19 14:58:31;;;;;;;;;;;;;;;8.26;100.00;97280.99;135593;1272;22524;-80
2023/10/19 15:01:35;;;;;;;;;;;;;;;8.27;100.00;97283.24;135552;1272;22535;-81
2023/10/19 15:04:38;;;;;;;;;;;;;;;8.29;100.00;97281.33;135669;1272;22498;-83
2023/10/19 15:07:40;;;;;;;;;;;;;;;8.31;100.00;97282.36;135578;1272;22507;-80
2023/10/19 15:10:43;;;;;;;;;;;;;;;8.32;100.00;97284.09;135570;1272;22621;-79
2023/10/19 15:13:46;;;;;;;;;;;;;;;8.34;100.00;97283.08;135566;1272;22609;-84
2023/10/19 15:16:49;;;;;;;;;;;;;;;8.36;100.00;97284.45;135890;1272;24893;-83
2023/10/19 15:19:51;;;;;;;;;;;;;;;8.37;100.00;97273.88;135979;1272;22804;-83
2023/10/19 15:22:54;;;;;;;;;;;;;;;8.38;100.00;97279.59;136205;1272;22507;-83
2023/10/19 15:25:57;;;;;;;;;;;;;;;8.37;100.00;97284.80;135950;1272;22545;-83
2023/10/19 15:29:00;;;;;;;;;;;;;;;8.35;100.00;97285.84;136108;1272;22552;-83
2023/10/19 15:32:02;;;;;;;;;;;;;;;8.36;100.00;97289.83;136066;1272;22544;-83
2023/10/19 15:35:04;;;;;;;;;;;;;;;8.37;100.00;97287.73;136033;1272;22513;-83
2023/10/19 15:38:07;;;;;;;;;;;;;;;8.35;100.00;97291.21;136071;1272;22566;-82
2023/10/19 15:41:09;;;;;;;;;;;;;;;8.33;100.00;97290.34;136170;1272;22531;-83
2023/10/19 15:44:12;;;;;;;;;;;;;;;8.35;100.00;97281.16;135873;1272;22521;-85
2023/10/19 15:47:18;;;;;;;;;;;;;;;8.33;100.00;97282.02;135853;1272;23188;-84
2023/10/19 15:50:21;;;;;;;;;;;;;;;8.29;100.00;97272.83;135852;1272;22508;-83